Time;durP1;ratioP1;P1;durP2;ratioP2;P2;SDS_P1;SDS_P2;PMS_P1;PMS_P2;Temp;Humidity;BMP_temperature;BMP_pressure;BME280_temperature;BME280_humidity;BME280_pressure;Samples;Min_cycle;Max_cycle;Signal;HPM_P1;HPM_P2
2021/04/26 00:01:06;;;;;;;;;;;;;;;3.69;69.36;99697.94;4914886;29;20112;-91
2021/04/26 00:03:32;;;;;;;;;;;;;;;3.92;68.86;99690.44;4917198;28;19937;-92
2021/04/26 00:05:58;;;;;;;;;;;;;;;3.94;68.72;99688.75;4913075;29;19923;-92
2021/04/26 00:08:23;;;;;;;;;;;;;;;3.94;68.05;99693.84;4919505;29;19919;-92
2021/04/26 00:10:48;;;;;;;;;;;;;;;3.93;68.12;99687.06;4914595;29;19923;-93
2021/04/26 00:13:14;;;;;;;;;;;;;;;3.63;68.70;99688.56;4919991;29;20367;-92
2021/04/26 00:15:39;;;;;;;;;;;;;;;4.00;68.52;99687.97;4909734;29;19926;-92
2021/04/26 00:18:05;;;;;;;;;;;;;;;3.96;67.54;99677.72;4921885;29;19918;-92
2021/04/26 00:20:30;;;;;;;;;;;;;;;3.89;67.69;99685.34;4915675;28;20002;-92
2021/04/26 00:22:56;;;;;;;;;;;;;;;3.59;69.99;99686.84;4919370;29;19950;-92
2021/04/26 00:25:22;;;;;;;;;;;;;;;3.55;71.69;99687.66;4923057;28;19923;-92
2021/04/26 00:27:47;;;;;;;;;;;;;;;3.53;71.21;99682.53;4940644;29;19923;-92
2021/04/26 00:30:14;;;;;;;;;;;;;;;3.63;71.05;99680.94;4927769;29;20379;-92
2021/04/26 00:32:39;;;;;;;;;;;;;;;3.23;75.20;99680.63;4951283;28;19929;-92
2021/04/26 00:35:05;;;;;;;;;;;;;;;3.42;75.38;99680.75;4920189;29;19938;-92
2021/04/26 00:37:31;;;;;;;;;;;;;;;3.41;75.30;99681.63;4923779;29;19922;-92
2021/04/26 00:39:56;;;;;;;;;;;;;;;3.58;74.89;99680.06;4920822;29;20469;-92
2021/04/26 00:42:22;;;;;;;;;;;;;;;3.51;75.32;99673.19;4921335;29;19918;-91
2021/04/26 00:44:48;;;;;;;;;;;;;;;3.20;75.92;99675.50;4912107;29;22703;-92
2021/04/26 00:47:14;;;;;;;;;;;;;;;3.51;77.29;99673.19;4919235;29;20478;-92
2021/04/26 00:49:39;;;;;;;;;;;;;;;3.56;76.19;99671.56;4910154;29;19962;-92
2021/04/26 00:52:05;;;;;;;;;;;;;;;3.39;78.51;99673.97;4910622;29;19948;-93
2021/04/26 00:54:30;;;;;;;;;;;;;;;3.52;76.85;99680.00;4919072;29;20047;-92
2021/04/26 00:56:57;;;;;;;;;;;;;;;3.21;76.87;99672.09;4904718;29;20283;-91
2021/04/26 00:59:28;;;;;;;;;;;;;;;3.24;78.92;99674.69;4918116;28;19922;-93
2021/04/26 01:01:53;;;;;;;;;;;;;;;3.09;80.11;99677.09;4931704;29;19931;-92
2021/04/26 01:04:19;;;;;;;;;;;;;;;2.61;83.62;99675.78;4912788;28;20019;-92
2021/04/26 01:06:44;;;;;;;;;;;;;;;2.57;85.34;99674.03;4923877;28;20295;-91
2021/04/26 01:09:09;;;;;;;;;;;;;;;2.66;84.38;99672.44;4924431;29;19938;-92
2021/04/26 01:11:55;;;;;;;;;;;;;;;2.21;87.63;99670.22;4917429;29;19933;-92
2021/04/26 01:14:29;;;;;;;;;;;;;;;2.32;87.10;99660.19;4908734;28;19922;-92
2021/04/26 01:16:57;;;;;;;;;;;;;;;2.00;90.44;99664.00;4930544;28;20230;-92
2021/04/26 01:19:26;;;;;;;;;;;;;;;1.88;92.49;99663.88;4913489;29;20070;-92
2021/04/26 01:21:54;;;;;;;;;;;;;;;1.75;93.29;99660.28;4923945;28;20398;-92
2021/04/26 01:24:32;;;;;;;;;;;;;;;1.95;92.89;99662.25;4924117;28;19923;-92
2021/04/26 01:26:57;;;;;;;;;;;;;;;1.83;92.98;99662.97;4932347;29;20001;-92
2021/04/26 01:29:28;;;;;;;;;;;;;;;1.70;93.18;99656.84;4931176;28;20368;-92
2021/04/26 01:31:54;;;;;;;;;;;;;;;1.66;94.14;99661.00;4927017;29;20351;-92
2021/04/26 01:34:19;;;;;;;;;;;;;;;1.74;94.07;99662.81;4924126;29;19934;-91
2021/04/26 01:36:44;;;;;;;;;;;;;;;1.85;93.26;99656.22;4918086;28;19919;-92
2021/04/26 01:39:10;;;;;;;;;;;;;;;1.87;93.05;99660.47;4924975;29;19926;-92
2021/04/26 01:41:35;;;;;;;;;;;;;;;1.57;95.08;99660.88;4932802;28;20037;-91
2021/04/26 01:44:00;;;;;;;;;;;;;;;1.73;95.68;99645.88;4914265;29;20447;-92
2021/04/26 01:46:26;;;;;;;;;;;;;;;1.59;95.81;99651.59;4906509;28;20053;-92
2021/04/26 01:48:52;;;;;;;;;;;;;;;1.35;96.87;99654.63;4915486;29;19973;-91
2021/04/26 01:51:18;;;;;;;;;;;;;;;1.50;96.58;99648.94;4915054;28;19933;-91
2021/04/26 01:53:43;;;;;;;;;;;;;;;1.50;95.54;99654.00;4910571;29;19926;-92
2021/04/26 01:56:09;;;;;;;;;;;;;;;1.71;94.01;99647.53;4906053;28;19961;-91
2021/04/26 01:58:38;;;;;;;;;;;;;;;1.91;91.72;99658.81;4907302;28;20244;-92
2021/04/26 02:01:03;;;;;;;;;;;;;;;2.03;89.85;99645.41;4911733;29;20479;-91
2021/04/26 02:03:28;;;;;;;;;;;;;;;2.12;87.15;99642.16;4909840;28;19923;-92
2021/04/26 02:05:54;;;;;;;;;;;;;;;2.21;85.24;99640.59;4915324;29;20446;-91
2021/04/26 02:08:20;;;;;;;;;;;;;;;2.09;84.90;99646.34;4915703;28;19982;-92
2021/04/26 02:10:45;;;;;;;;;;;;;;;1.74;86.95;99648.44;4909838;29;19924;-93
2021/04/26 02:13:14;;;;;;;;;;;;;;;1.51;88.74;99643.03;4925690;28;19927;-92
2021/04/26 02:15:39;;;;;;;;;;;;;;;1.36;91.24;99643.63;4918395;29;19918;-92
2021/04/26 02:18:04;;;;;;;;;;;;;;;1.31;93.48;99641.88;4918909;29;19930;-92
2021/04/26 02:20:32;;;;;;;;;;;;;;;1.16;94.61;99640.78;4919570;28;19929;-92
2021/04/26 02:22:57;;;;;;;;;;;;;;;1.18;94.44;99639.13;4918820;29;19926;-92
2021/04/26 02:25:23;;;;;;;;;;;;;;;1.10;94.24;99635.63;4921807;28;20044;-92
2021/04/26 02:27:48;;;;;;;;;;;;;;;0.90;95.12;99629.38;4924850;29;19922;-91
2021/04/26 02:30:14;;;;;;;;;;;;;;;0.96;95.17;99635.41;4923340;29;19981;-92
2021/04/26 02:32:55;;;;;;;;;;;;;;;0.96;95.10;99626.94;4917085;29;19930;-92
2021/04/26 02:35:22;;;;;;;;;;;;;;;0.82;95.21;99621.63;4927148;29;19923;-92
2021/04/26 02:37:53;;;;;;;;;;;;;;;0.79;95.57;99622.41;4916751;28;19926;-92
2021/04/26 02:40:19;;;;;;;;;;;;;;;0.91;96.11;99620.94;4926867;29;19926;-92
2021/04/26 02:42:46;;;;;;;;;;;;;;;0.80;95.77;99629.22;4916763;29;19926;-91
2021/04/26 02:45:12;;;;;;;;;;;;;;;0.89;95.34;99622.56;4925140;29;19931;-92
2021/04/26 02:47:38;;;;;;;;;;;;;;;1.02;94.02;99619.44;4929482;28;19923;-91
2021/04/26 02:50:05;;;;;;;;;;;;;;;0.78;95.08;99617.34;4920959;29;20017;-92
2021/04/26 02:52:31;;;;;;;;;;;;;;;0.60;96.26;99610.28;4930773;28;19937;-91
2021/04/26 02:54:56;;;;;;;;;;;;;;;0.54;97.08;99610.16;4917524;29;19922;-91
2021/04/26 02:57:22;;;;;;;;;;;;;;;0.62;96.61;99608.63;4919288;28;19931;-91
2021/04/26 02:59:47;;;;;;;;;;;;;;;0.71;96.89;99603.72;4920194;29;20018;-91
2021/04/26 03:02:13;;;;;;;;;;;;;;;0.75;95.37;99610.53;4918578;28;20009;-91
2021/04/26 03:04:38;;;;;;;;;;;;;;;1.11;93.91;99604.34;4906466;29;19919;-91
2021/04/26 03:07:05;;;;;;;;;;;;;;;0.98;92.79;99602.44;4916043;28;20005;-92
2021/04/26 03:09:30;;;;;;;;;;;;;;;1.06;91.64;99600.91;4925786;29;19930;-91
2021/04/26 03:11:56;;;;;;;;;;;;;;;0.99;91.66;99594.03;4915028;29;20353;-91
2021/04/26 03:14:21;;;;;;;;;;;;;;;0.78;92.47;99590.31;4916704;29;19941;-91
2021/04/26 03:16:47;;;;;;;;;;;;;;;0.81;92.71;99586.97;4916596;29;19930;-92
2021/04/26 03:19:13;;;;;;;;;;;;;;;0.60;94.20;99583.25;4917388;29;19923;-91
2021/04/26 03:21:41;;;;;;;;;;;;;;;0.52;94.39;99574.63;4925529;28;19930;-92
2021/04/26 03:24:08;;;;;;;;;;;;;;;0.30;95.06;99578.47;4924680;29;19923;-91
2021/04/26 03:26:33;;;;;;;;;;;;;;;0.46;95.08;99577.09;4916137;28;19978;-91
2021/04/26 03:28:59;;;;;;;;;;;;;;;0.54;94.89;99575.50;4910127;29;20355;-91
2021/04/26 03:31:25;;;;;;;;;;;;;;;0.61;94.28;99576.47;4914250;28;19922;-92
2021/04/26 03:33:50;;;;;;;;;;;;;;;0.54;94.16;99567.91;4909842;28;19933;-92
2021/04/26 03:36:15;;;;;;;;;;;;;;;0.79;93.15;99569.19;4915797;29;19922;-92
2021/04/26 03:38:45;;;;;;;;;;;;;;;1.03;92.06;99567.88;4920424;29;20346;-93
2021/04/26 03:41:10;;;;;;;;;;;;;;;1.08;89.84;99567.97;4927598;28;20330;-90
2021/04/26 03:43:36;;;;;;;;;;;;;;;0.91;90.21;99565.97;4907338;29;19931;-90
2021/04/26 03:46:02;;;;;;;;;;;;;;;1.51;88.45;99566.03;4907756;28;19918;-92
2021/04/26 03:48:27;;;;;;;;;;;;;;;1.30;87.21;99569.09;4910643;29;19922;-92
2021/04/26 03:50:54;;;;;;;;;;;;;;;1.72;85.77;99557.84;4925204;29;19946;-92
2021/04/26 03:53:19;;;;;;;;;;;;;;;1.46;85.69;99559.22;4932401;29;19957;-94
2021/04/26 03:55:45;;;;;;;;;;;;;;;1.09;86.49;99559.50;4929556;28;19929;-93
2021/04/26 03:58:11;;;;;;;;;;;;;;;1.42;85.80;99556.63;4927274;29;19942;-93
2021/04/26 04:00:36;;;;;;;;;;;;;;;0.91;87.31;99560.06;4922232;29;19926;-92
2021/04/26 04:03:08;;;;;;;;;;;;;;;1.15;87.47;99555.38;4914375;29;19969;-92
2021/04/26 04:05:34;;;;;;;;;;;;;;;1.37;86.56;99548.94;4919411;28;19922;-87
2021/04/26 04:07:59;;;;;;;;;;;;;;;0.77;86.83;99555.63;4910984;29;20314;-89
2021/04/26 04:10:25;;;;;;;;;;;;;;;1.40;86.08;99548.13;4906102;28;19935;-86
2021/04/26 04:12:50;;;;;;;;;;;;;;;1.54;85.56;99546.63;4905010;29;19918;-86
2021/04/26 04:15:15;;;;;;;;;;;;;;;1.53;84.18;99550.00;4906022;28;19927;-86
2021/04/26 04:17:41;;;;;;;;;;;;;;;1.43;84.45;99548.16;4906286;29;19926;-86
2021/04/26 04:20:07;;;;;;;;;;;;;;;1.60;84.14;99543.31;4897069;28;20497;-86
2021/04/26 04:22:33;;;;;;;;;;;;;;;1.54;83.52;99551.69;4906072;29;19927;-85
2021/04/26 04:24:58;;;;;;;;;;;;;;;1.69;83.12;99548.50;4904380;28;19954;-86
2021/04/26 04:27:23;;;;;;;;;;;;;;;1.81;83.21;99555.41;4903855;29;19926;-85
2021/04/26 04:29:49;;;;;;;;;;;;;;;1.85;82.59;99549.56;4890557;28;19927;-89
2021/04/26 04:32:14;;;;;;;;;;;;;;;1.20;83.97;99552.91;4905412;29;19926;-88
2021/04/26 04:34:39;;;;;;;;;;;;;;;1.72;84.56;99548.53;4904455;28;19927;-85
2021/04/26 04:37:05;;;;;;;;;;;;;;;1.40;84.21;99550.66;4904188;29;19934;-86
2021/04/26 04:39:30;;;;;;;;;;;;;;;1.36;84.84;99553.97;4890081;28;20318;-86
2021/04/26 04:41:55;;;;;;;;;;;;;;;1.54;84.69;99551.69;4904064;29;19954;-88
2021/04/26 04:44:21;;;;;;;;;;;;;;;1.44;85.23;99547.34;4906083;28;19933;-87
2021/04/26 04:46:46;;;;;;;;;;;;;;;1.32;85.58;99554.75;4905057;29;19923;-87
2021/04/26 04:49:12;;;;;;;;;;;;;;;1.56;84.97;99546.66;4904528;28;19954;-86
2021/04/26 04:51:37;;;;;;;;;;;;;;;1.48;84.14;99549.06;4906565;29;19926;-88
2021/04/26 04:54:03;;;;;;;;;;;;;;;1.82;83.65;99541.88;4904969;28;19918;-87
2021/04/26 04:56:28;;;;;;;;;;;;;;;1.61;84.14;99545.00;4919982;29;19970;-87
2021/04/26 04:58:54;;;;;;;;;;;;;;;1.82;86.02;99549.50;4904475;28;19926;-86
2021/04/26 05:01:19;;;;;;;;;;;;;;;1.50;86.36;99547.41;4894495;29;20382;-88
2021/04/26 05:03:44;;;;;;;;;;;;;;;2.13;84.13;99542.25;4889568;28;19923;-87
2021/04/26 05:06:10;;;;;;;;;;;;;;;2.28;82.70;99539.84;4905173;29;20542;-88
2021/04/26 05:08:35;;;;;;;;;;;;;;;2.22;83.92;99537.25;4906563;29;19927;-88
2021/04/26 05:11:00;;;;;;;;;;;;;;;2.35;82.47;99541.63;4895987;29;20561;-89
2021/04/26 05:13:26;;;;;;;;;;;;;;;2.45;83.36;99537.47;4895854;29;19923;-88
2021/04/26 05:15:51;;;;;;;;;;;;;;;2.53;82.78;99540.06;4909873;29;20014;-86
2021/04/26 05:18:17;;;;;;;;;;;;;;;2.83;81.42;99536.94;4911086;28;19966;-86
2021/04/26 05:20:42;;;;;;;;;;;;;;;2.76;79.95;99530.09;4907712;29;19930;-91
2021/04/26 05:23:11;;;;;;;;;;;;;;;3.06;81.38;99534.59;4909787;28;19929;-87
2021/04/26 05:25:36;;;;;;;;;;;;;;;3.01;78.30;99533.69;4897396;28;19927;-87
2021/04/26 05:28:03;;;;;;;;;;;;;;;2.93;77.80;99536.19;4910773;28;19923;-89
2021/04/26 05:30:30;;;;;;;;;;;;;;;3.21;77.62;99532.13;4909485;29;19928;-90
2021/04/26 05:32:55;;;;;;;;;;;;;;;3.07;77.43;99534.56;4906139;28;20029;-88
2021/04/26 05:35:20;;;;;;;;;;;;;;;2.73;78.65;99534.31;4898632;29;20398;-90
2021/04/26 05:37:46;;;;;;;;;;;;;;;2.98;79.16;99534.50;4910831;28;19918;-87
2021/04/26 05:40:12;;;;;;;;;;;;;;;3.18;76.48;99537.19;4891590;29;20347;-86
2021/04/26 05:42:38;;;;;;;;;;;;;;;3.43;74.08;99534.81;4908931;28;19942;-85
2021/04/26 05:45:04;;;;;;;;;;;;;;;3.11;76.05;99532.91;4909152;29;20265;-88
2021/04/26 05:47:29;;;;;;;;;;;;;;;3.43;76.24;99524.63;4894891;28;19923;-87
2021/04/26 05:50:00;;;;;;;;;;;;;;;3.49;74.57;99528.06;4911758;29;19926;-91
2021/04/26 05:52:26;;;;;;;;;;;;;;;3.85;71.70;99523.09;4894583;28;20165;-88
2021/04/26 05:54:53;;;;;;;;;;;;;;;3.45;73.00;99521.25;4903851;29;19926;-90
2021/04/26 05:57:19;;;;;;;;;;;;;;;3.73;72.83;99529.00;4905499;28;19926;-87
2021/04/26 05:59:45;;;;;;;;;;;;;;;3.92;71.75;99522.28;4889432;29;19962;-85
2021/04/26 06:02:10;;;;;;;;;;;;;;;4.20;70.25;99523.22;4918385;28;19951;-86
2021/04/26 06:04:35;;;;;;;;;;;;;;;4.15;65.14;99515.56;4906944;29;20005;-88
2021/04/26 06:07:01;;;;;;;;;;;;;;;4.40;65.84;99519.00;4905118;28;19977;-87
2021/04/26 06:09:26;;;;;;;;;;;;;;;4.95;64.92;99523.25;4910963;29;20029;-90
2021/04/26 06:11:51;;;;;;;;;;;;;;;4.82;62.89;99526.66;4906056;29;19927;-89
2021/04/26 06:14:17;;;;;;;;;;;;;;;5.28;63.00;99534.28;4889887;29;19930;-91
2021/04/26 06:16:42;;;;;;;;;;;;;;;5.54;60.41;99525.69;4891249;29;20017;-88
2021/04/26 06:19:10;;;;;;;;;;;;;;;5.19;64.54;99532.56;4902807;28;19934;-89
2021/04/26 06:21:36;;;;;;;;;;;;;;;5.23;66.80;99536.00;4903105;28;20710;-88
2021/04/26 06:24:01;;;;;;;;;;;;;;;5.20;69.18;99525.75;4905056;28;19940;-91
2021/04/26 06:26:27;;;;;;;;;;;;;;;5.38;67.13;99527.44;4892246;29;20009;-89
2021/04/26 06:28:52;;;;;;;;;;;;;;;5.17;69.65;99525.78;4907051;29;20014;-89
2021/04/26 06:31:18;;;;;;;;;;;;;;;5.41;71.71;99520.63;4890935;29;20041;-88
2021/04/26 06:33:43;;;;;;;;;;;;;;;5.43;66.53;99529.13;4887958;29;19930;-90
2021/04/26 06:36:08;;;;;;;;;;;;;;;5.60;67.22;99538.44;4903984;29;19923;-87
2021/04/26 06:38:34;;;;;;;;;;;;;;;5.94;65.51;99535.75;4897466;29;19985;-87
2021/04/26 06:40:59;;;;;;;;;;;;;;;6.54;64.38;99533.72;4918938;28;19966;-87
2021/04/26 06:43:24;;;;;;;;;;;;;;;6.92;59.91;99530.03;4898549;29;19935;-85
2021/04/26 06:45:50;;;;;;;;;;;;;;;7.07;56.28;99529.91;4885499;29;19938;-88
2021/04/26 06:48:15;;;;;;;;;;;;;;;7.74;56.27;99532.59;4902340;29;20024;-85
2021/04/26 06:50:41;;;;;;;;;;;;;;;7.64;54.30;99525.88;4897920;28;20422;-86
2021/04/26 06:53:06;;;;;;;;;;;;;;;7.61;56.28;99520.78;4896456;29;20268;-86
2021/04/26 06:55:32;;;;;;;;;;;;;;;7.51;60.70;99520.91;4898860;28;20017;-86
2021/04/26 06:57:58;;;;;;;;;;;;;;;7.69;61.42;99524.97;4899668;29;19922;-85
2021/04/26 07:00:24;;;;;;;;;;;;;;;7.81;59.83;99518.00;4883033;29;20300;-86
2021/04/26 07:02:50;;;;;;;;;;;;;;;7.07;63.48;99526.47;4910749;29;19929;-86
2021/04/26 07:05:15;;;;;;;;;;;;;;;6.96;63.88;99520.63;4915251;28;19923;-92
2021/04/26 07:07:41;;;;;;;;;;;;;;;8.23;58.83;99516.56;4928364;29;19922;-92
2021/04/26 07:10:08;;;;;;;;;;;;;;;6.95;59.15;99522.31;4918423;29;19929;-93
2021/04/26 07:12:33;;;;;;;;;;;;;;;7.80;58.40;99517.16;4929756;29;19923;-92
2021/04/26 07:14:59;;;;;;;;;;;;;;;8.62;58.13;99513.44;4918306;29;19929;-93
2021/04/26 07:17:26;;;;;;;;;;;;;;;9.60;51.62;99512.56;4905660;29;19934;-93
2021/04/26 07:19:53;;;;;;;;;;;;;;;8.49;52.34;99517.94;4920111;29;20442;-93
2021/04/26 07:22:18;;;;;;;;;;;;;;;8.78;53.89;99505.50;4912054;29;19922;-92
2021/04/26 07:24:54;;;;;;;;;;;;;;;9.55;53.05;99503.25;4894492;29;20104;-93
2021/04/26 07:27:19;;;;;;;;;;;;;;;9.05;51.14;99503.31;4931868;28;19969;-94
2021/04/26 07:29:44;;;;;;;;;;;;;;;9.28;52.88;99504.63;4922364;29;20371;-93
2021/04/26 07:32:10;;;;;;;;;;;;;;;9.56;51.58;99504.94;4918192;29;19923;-93
2021/04/26 07:34:39;;;;;;;;;;;;;;;9.42;47.51;99502.66;4908899;29;19954;-92
2021/04/26 07:37:11;;;;;;;;;;;;;;;8.72;47.41;99503.00;4901896;29;19930;-93
2021/04/26 07:39:37;;;;;;;;;;;;;;;9.46;48.66;99509.41;4916242;29;19926;-92
2021/04/26 07:42:03;;;;;;;;;;;;;;;9.45;47.35;99502.59;4916782;29;20320;-94
2021/04/26 07:44:28;;;;;;;;;;;;;;;10.31;45.04;99505.97;4932691;29;19933;-93
2021/04/26 07:46:54;;;;;;;;;;;;;;;10.41;44.53;99502.28;4917285;29;19930;-93
2021/04/26 07:49:20;;;;;;;;;;;;;;;10.10;46.38;99509.81;4928521;29;20050;-94
2021/04/26 07:51:45;;;;;;;;;;;;;;;9.78;44.83;99505.34;4913133;28;20013;-94
2021/04/26 07:54:11;;;;;;;;;;;;;;;10.65;45.23;99500.00;4913294;29;19927;-94
2021/04/26 07:56:40;;;;;;;;;;;;;;;10.31;41.12;99490.50;4917537;29;19926;-93
2021/04/26 07:59:06;;;;;;;;;;;;;;;11.06;40.67;99491.25;4925377;29;19984;-94
2021/04/26 08:01:31;;;;;;;;;;;;;;;11.58;44.38;99493.28;4907334;28;19957;-94
2021/04/26 08:03:56;;;;;;;;;;;;;;;11.05;49.75;99491.28;4904472;29;20403;-93
2021/04/26 08:06:22;;;;;;;;;;;;;;;10.87;46.88;99503.72;4900954;28;19992;-94
2021/04/26 08:08:48;;;;;;;;;;;;;;;10.46;49.45;99503.00;4926409;28;19930;-93
2021/04/26 08:11:15;;;;;;;;;;;;;;;11.15;49.13;99495.28;4931901;29;19927;-94
2021/04/26 08:13:40;;;;;;;;;;;;;;;10.61;53.28;99490.66;4921845;29;19930;-94
2021/04/26 08:16:06;;;;;;;;;;;;;;;9.63;53.37;99494.50;4914747;28;20139;-93
2021/04/26 08:18:32;;;;;;;;;;;;;;;10.33;52.53;99491.31;4904817;28;19923;-94
2021/04/26 08:20:58;;;;;;;;;;;;;;;11.30;50.88;99483.72;4920536;28;19949;-93
2021/04/26 08:23:23;;;;;;;;;;;;;;;11.81;48.26;99485.72;4910594;29;20443;-94
2021/04/26 08:25:48;;;;;;;;;;;;;;;11.80;52.91;99488.34;4936298;28;20033;-93
2021/04/26 08:28:16;;;;;;;;;;;;;;;10.57;49.43;99491.63;4903429;29;20284;-94
2021/04/26 08:30:42;;;;;;;;;;;;;;;11.09;45.28;99490.31;4900501;28;20461;-94
2021/04/26 08:33:08;;;;;;;;;;;;;;;10.84;39.30;99496.09;4936427;28;20389;-93
2021/04/26 08:35:33;;;;;;;;;;;;;;;12.47;41.29;99485.47;4914143;28;19927;-94
2021/04/26 08:37:59;;;;;;;;;;;;;;;11.95;40.78;99481.91;4913332;29;20004;-92
2021/04/26 08:40:24;;;;;;;;;;;;;;;11.99;39.36;99479.19;4912112;28;19978;-93
2021/04/26 08:42:49;;;;;;;;;;;;;;;11.68;42.49;99479.25;4911883;29;19935;-93
2021/04/26 08:45:19;;;;;;;;;;;;;;;11.97;45.15;99478.41;4907019;28;19926;-92
2021/04/26 08:47:45;;;;;;;;;;;;;;;10.81;41.64;99487.56;4926286;29;20523;-92
2021/04/26 08:50:11;;;;;;;;;;;;;;;11.73;41.40;99478.22;4914253;28;19985;-94
2021/04/26 08:52:36;;;;;;;;;;;;;;;11.78;45.07;99475.50;4914820;29;19999;-94
2021/04/26 08:55:02;;;;;;;;;;;;;;;11.50;41.38;99480.59;4916192;28;19965;-94
2021/04/26 08:57:28;;;;;;;;;;;;;;;11.77;45.05;99483.25;4906230;29;19929;-93
2021/04/26 08:59:53;;;;;;;;;;;;;;;12.69;37.73;99475.28;4912991;28;19922;-92
2021/04/26 09:02:19;;;;;;;;;;;;;;;12.03;40.68;99470.47;4923103;29;19918;-93
2021/04/26 09:04:49;;;;;;;;;;;;;;;11.13;37.66;99466.16;4914251;28;19933;-94
2021/04/26 09:07:14;;;;;;;;;;;;;;;11.95;38.87;99467.31;4914611;29;20053;-94
2021/04/26 09:09:44;;;;;;;;;;;;;;;12.26;37.93;99466.34;4903802;28;20094;-94
2021/04/26 09:12:11;;;;;;;;;;;;;;;12.33;39.06;99462.66;4907381;29;19930;-94
2021/04/26 09:14:40;;;;;;;;;;;;;;;12.11;39.99;99457.31;4912227;28;19922;-94
2021/04/26 09:17:35;;;;;;;;;;;;;;;13.54;37.84;99458.53;4898121;29;20104;-93
2021/04/26 09:20:00;;;;;;;;;;;;;;;13.52;42.45;99451.75;4916472;29;20264;-94
2021/04/26 09:22:39;;;;;;;;;;;;;;;11.77;37.53;99460.91;4923257;28;20371;-94
2021/04/26 09:25:17;;;;;;;;;;;;;;;12.86;39.02;99462.63;4920107;29;19919;-93
2021/04/26 09:27:56;;;;;;;;;;;;;;;12.80;39.26;99457.69;4920274;29;20009;-93
2021/04/26 09:30:34;;;;;;;;;;;;;;;13.69;38.71;99454.56;4906439;29;20468;-92
2021/04/26 09:33:19;;;;;;;;;;;;;;;12.76;42.19;99451.78;4911957;29;20017;-93
2021/04/26 09:35:56;;;;;;;;;;;;;;;13.60;37.34;99449.72;4920095;29;19934;-93
2021/04/26 09:38:22;;;;;;;;;;;;;;;12.93;35.78;99447.75;4906662;29;20019;-93
2021/04/26 09:41:07;;;;;;;;;;;;;;;13.98;34.83;99445.69;4917857;29;20039;-93
2021/04/26 09:43:33;;;;;;;;;;;;;;;13.06;37.52;99441.28;4925732;28;19926;-93
2021/04/26 09:45:59;;;;;;;;;;;;;;;12.41;39.69;99447.78;4916066;29;19922;-94
2021/04/26 09:48:27;;;;;;;;;;;;;;;12.68;36.41;99453.78;4916947;29;19981;-91
2021/04/26 09:50:55;;;;;;;;;;;;;;;12.84;36.02;99445.50;4918111;29;19930;-93
2021/04/26 09:53:24;;;;;;;;;;;;;;;13.28;38.72;99440.56;4938117;28;19994;-94
2021/04/26 09:55:50;;;;;;;;;;;;;;;14.66;47.38;99426.59;4915357;29;19923;-93
2021/04/26 09:58:16;;;;;;;;;;;;;;;12.75;35.78;99434.59;4922769;28;20401;-95
2021/04/26 10:00:43;;;;;;;;;;;;;;;13.35;35.72;99435.09;4915658;29;19927;-95
2021/04/26 10:03:09;;;;;;;;;;;;;;;14.06;37.38;99435.00;4914411;28;20010;-93
2021/04/26 10:05:35;;;;;;;;;;;;;;;15.46;33.02;99419.63;4915098;29;20002;-93
2021/04/26 10:08:01;;;;;;;;;;;;;;;15.21;37.11;99408.66;4916997;28;19919;-94
2021/04/26 10:10:26;;;;;;;;;;;;;;;15.43;32.82;99409.38;4915216;29;19929;-94
2021/04/26 10:12:52;;;;;;;;;;;;;;;17.51;35.74;99401.75;4904733;28;20026;-94
2021/04/26 10:15:23;;;;;;;;;;;;;;;14.41;33.25;99409.44;4918394;29;19929;-94
2021/04/26 10:17:48;;;;;;;;;;;;;;;15.86;31.52;99397.03;4915292;28;20378;-92
2021/04/26 10:20:15;;;;;;;;;;;;;;;15.78;32.61;99399.16;4907471;29;20037;-94
2021/04/26 10:22:43;;;;;;;;;;;;;;;14.30;36.40;99399.53;4924855;28;19923;-94
2021/04/26 10:25:09;;;;;;;;;;;;;;;14.99;35.63;99391.44;4910924;28;19923;-93
2021/04/26 10:27:37;;;;;;;;;;;;;;;16.72;32.38;99381.56;4915787;29;20568;-93
2021/04/26 10:30:08;;;;;;;;;;;;;;;14.16;35.96;99387.13;4913871;29;20707;-92
2021/04/26 10:33:03;;;;;;;;;;;;;;;14.75;39.21;99384.72;4907003;29;20123;-91
2021/04/26 10:35:44;;;;;;;;;;;;;;;14.25;35.31;99385.06;4936097;28;19927;-92
2021/04/26 10:38:28;;;;;;;;;;;;;;;17.39;44.28;99365.97;4917934;29;19926;-92
2021/04/26 10:40:54;;;;;;;;;;;;;;;16.25;31.96;99374.41;4935301;29;19918;-92
2021/04/26 10:43:26;;;;;;;;;;;;;;;15.62;42.71;99370.44;4917165;28;19933;-92
2021/04/26 10:46:02;;;;;;;;;;;;;;;15.62;32.50;99379.97;4913381;29;20253;-91
2021/04/26 10:48:28;;;;;;;;;;;;;;;16.27;28.58;99365.59;4904211;29;19922;-92
2021/04/26 10:50:54;;;;;;;;;;;;;;;15.58;28.29;99355.91;4928830;29;19923;-92
2021/04/26 10:53:23;;;;;;;;;;;;;;;16.91;30.83;99352.88;4915201;29;19926;-92
2021/04/26 10:55:49;;;;;;;;;;;;;;;14.27;30.49;99353.00;4933368;29;19986;-93
2021/04/26 10:58:22;;;;;;;;;;;;;;;15.02;36.50;99344.63;4921918;28;19979;-91
2021/04/26 11:00:49;;;;;;;;;;;;;;;15.74;44.31;99340.50;4915242;29;19926;-92
2021/04/26 11:03:19;;;;;;;;;;;;;;;15.56;28.16;99330.94;4913628;28;20478;-91
2021/04/26 11:05:45;;;;;;;;;;;;;;;15.77;38.88;99336.91;4921316;29;19933;-91
2021/04/26 11:08:36;;;;;;;;;;;;;;;14.64;29.08;99335.94;4915752;28;20029;-92
2021/04/26 11:11:11;;;;;;;;;;;;;;;16.20;31.08;99322.66;4934567;28;19990;-92
2021/04/26 11:13:38;;;;;;;;;;;;;;;17.29;29.53;99321.38;4912118;29;19922;-93
2021/04/26 11:16:07;;;;;;;;;;;;;;;17.70;31.09;99318.25;4908507;28;19931;-93
2021/04/26 11:18:37;;;;;;;;;;;;;;;17.72;33.84;99306.81;4919678;29;19931;-93
2021/04/26 11:21:03;;;;;;;;;;;;;;;15.12;30.38;99324.31;4909902;28;19931;-92
2021/04/26 11:23:43;;;;;;;;;;;;;;;16.15;30.31;99314.25;4910211;29;20102;-94
2021/04/26 11:26:16;;;;;;;;;;;;;;;14.88;26.58;99312.44;4937072;29;19911;-93
2021/04/26 11:29:00;;;;;;;;;;;;;;;15.91;37.94;99299.88;4929949;29;20188;-91
2021/04/26 11:31:44;;;;;;;;;;;;;;;14.25;31.84;99302.16;4947897;28;20021;-92
2021/04/26 11:34:09;;;;;;;;;;;;;;;15.38;42.88;99297.16;4938515;28;19933;-92
2021/04/26 11:36:36;;;;;;;;;;;;;;;14.68;29.19;99300.34;4920674;28;19926;-90
2021/04/26 11:39:06;;;;;;;;;;;;;;;14.50;28.04;99295.03;4904164;29;20014;-92
2021/04/26 11:41:42;;;;;;;;;;;;;;;15.72;32.55;99286.97;4917326;29;19926;-91
2021/04/26 11:44:08;;;;;;;;;;;;;;;15.98;32.08;99285.66;4909169;29;19962;-93
2021/04/26 11:46:34;;;;;;;;;;;;;;;14.70;29.56;99283.81;4909256;29;20391;-90
2021/04/26 11:49:12;;;;;;;;;;;;;;;14.50;30.41;99282.06;4928602;29;19957;-93
2021/04/26 11:51:38;;;;;;;;;;;;;;;15.47;30.63;99281.13;4929881;29;19937;-92
2021/04/26 11:54:10;;;;;;;;;;;;;;;15.06;27.40;99285.69;4901780;29;19927;-95
2021/04/26 11:56:35;;;;;;;;;;;;;;;15.15;34.35;99284.41;4910513;28;19919;-92
2021/04/26 11:59:07;;;;;;;;;;;;;;;15.60;28.12;99275.34;4915218;29;19931;-93
2021/04/26 12:01:33;;;;;;;;;;;;;;;16.87;31.89;99275.91;4914808;29;19926;-91
2021/04/26 12:03:59;;;;;;;;;;;;;;;19.48;31.73;99262.34;4913717;29;19934;-92
2021/04/26 12:06:30;;;;;;;;;;;;;;;16.30;28.64;99264.09;4901704;29;19923;-93
2021/04/26 12:08:57;;;;;;;;;;;;;;;16.56;38.04;99261.06;4916239;29;20033;-93
2021/04/26 12:11:25;;;;;;;;;;;;;;;15.75;30.20;99261.66;4901106;29;20221;-94
2021/04/26 12:14:10;;;;;;;;;;;;;;;15.13;29.61;99252.50;4909919;28;19953;-93
2021/04/26 12:16:39;;;;;;;;;;;;;;;14.09;30.71;99258.78;4911315;28;19933;-93
2021/04/26 12:19:11;;;;;;;;;;;;;;;13.32;32.12;99243.81;4915203;29;19927;-93
2021/04/26 12:21:41;;;;;;;;;;;;;;;12.96;32.52;99251.19;4917734;29;19918;-94
2021/04/26 12:24:07;;;;;;;;;;;;;;;14.77;29.48;99237.72;4911651;29;19922;-94
2021/04/26 12:26:32;;;;;;;;;;;;;;;15.24;29.42;99229.50;4915610;29;19933;-92
2021/04/26 12:29:03;;;;;;;;;;;;;;;15.69;28.34;99230.75;4921094;29;19938;-93
2021/04/26 12:31:29;;;;;;;;;;;;;;;17.01;30.24;99225.72;4904484;28;19931;-94
2021/04/26 12:34:13;;;;;;;;;;;;;;;16.57;28.67;99223.75;4911641;29;20026;-93
2021/04/26 12:36:38;;;;;;;;;;;;;;;15.37;25.71;99220.22;4906477;29;20429;-93
2021/04/26 12:39:04;;;;;;;;;;;;;;;15.29;23.57;99221.50;4919796;29;19979;-93
2021/04/26 12:41:37;;;;;;;;;;;;;;;16.07;29.72;99217.66;4927652;29;19970;-94
2021/04/26 12:44:05;;;;;;;;;;;;;;;18.71;27.79;99207.16;4924174;29;19947;-93
2021/04/26 12:46:37;;;;;;;;;;;;;;;16.17;27.73;99212.81;4927596;29;19934;-94
2021/04/26 12:49:06;;;;;;;;;;;;;;;16.56;25.47;99214.25;4917302;29;19982;-93
2021/04/26 12:51:35;;;;;;;;;;;;;;;16.06;28.70;99201.25;4923130;29;19923;-93
2021/04/26 12:54:08;;;;;;;;;;;;;;;16.67;30.22;99197.19;4929141;29;20712;-93